createdAt,value
2024-01-15T00:04:41.560Z,89.06
2024-01-15T00:09:44.674Z,89.07
2024-01-15T00:14:47.519Z,89.06
2024-01-15T00:19:50.374Z,89.05
2024-01-15T00:24:53.134Z,89.04
2024-01-15T00:29:56.081Z,89.00
2024-01-15T00:34:58.841Z,88.99
2024-01-15T00:40:02.129Z,88.96
2024-01-15T00:45:06.655Z,88.97
2024-01-15T00:50:10.492Z,88.97
2024-01-15T00:55:13.208Z,88.95
2024-01-15T01:00:16.421Z,88.96
2024-01-15T01:05:19.391Z,88.99
2024-01-15T01:10:22.457Z,88.99
2024-01-15T01:15:25.990Z,89.00
2024-01-15T01:20:28.802Z,89.11
2024-01-15T01:25:31.885Z,89.13
2024-01-15T01:30:34.745Z,89.16
2024-01-15T01:35:37.745Z,89.18
2024-01-15T01:40:40.739Z,89.24
2024-01-15T01:45:44.085Z,89.29
2024-01-15T01:50:47.336Z,89.38
2024-01-15T01:55:52.019Z,89.36
2024-01-15T02:00:55.185Z,89.40
2024-01-15T02:05:58.478Z,89.40
2024-01-15T02:11:03.384Z,89.43
2024-01-15T02:16:06.354Z,89.49
2024-01-15T02:21:10.926Z,89.50
2024-01-15T02:26:14.837Z,89.57
2024-01-15T02:31:18.466Z,89.56
2024-01-15T02:36:21.392Z,89.63
2024-01-15T02:41:24.288Z,89.63
2024-01-15T02:46:26.997Z,89.63
2024-01-15T02:51:30.208Z,89.60
2024-01-15T02:56:33.067Z,89.59
2024-01-15T03:01:35.897Z,89.55
2024-01-15T03:06:39.133Z,89.60
2024-01-15T03:11:42.198Z,89.53
2024-01-15T03:16:44.908Z,89.57
2024-01-15T03:21:47.838Z,89.52
2024-01-15T03:26:50.628Z,89.49
2024-01-15T03:31:54.299Z,89.47
2024-01-15T03:36:57.058Z,89.44
2024-01-15T03:41:59.862Z,89.50
2024-01-15T03:47:02.732Z,89.64
2024-01-15T03:52:06.265Z,89.65
2024-01-15T03:57:09.133Z,89.70
2024-01-15T04:02:12.027Z,89.67
2024-01-15T04:07:14.751Z,89.63
2024-01-15T04:12:17.696Z,89.61
2024-01-15T04:17:22.795Z,89.64
2024-01-15T04:22:26.829Z,89.61
2024-01-15T04:27:29.694Z,89.61
2024-01-15T04:32:32.642Z,89.61
2024-01-15T04:37:35.565Z,89.60
2024-01-15T04:42:38.668Z,89.61
2024-01-15T04:47:41.561Z,89.60
2024-01-15T04:52:44.773Z,89.68
2024-01-15T04:57:47.762Z,89.71
2024-01-15T05:02:52.480Z,89.72
2024-01-15T05:07:55.465Z,89.74
2024-01-15T05:12:58.228Z,89.81
2024-01-15T05:18:01.153Z,89.79
2024-01-15T05:23:04.490Z,89.82
2024-01-15T05:28:07.446Z,89.86
2024-01-15T05:33:10.230Z,89.89
2024-01-15T05:38:13.803Z,89.99
2024-01-15T05:43:16.532Z,90.03
2024-01-15T05:48:19.965Z,90.14
2024-01-15T05:53:22.846Z,90.10
2024-01-15T05:58:25.596Z,90.25
2024-01-15T06:03:28.771Z,90.31
2024-01-15T06:08:31.673Z,90.35
2024-01-15T06:13:34.654Z,90.35
2024-01-15T06:18:37.593Z,90.43
2024-01-15T06:23:41.572Z,90.46
2024-01-15T06:28:44.480Z,90.46
2024-01-15T06:33:49.674Z,90.49
2024-01-15T06:38:52.752Z,90.50
2024-01-15T06:43:56.892Z,90.54
2024-01-15T06:48:59.668Z,90.50
2024-01-15T06:54:03.148Z,90.48
2024-01-15T06:59:06.047Z,90.43
2024-01-15T07:04:09.453Z,90.37
2024-01-15T07:09:12.404Z,90.34
2024-01-15T07:14:15.617Z,90.23
2024-01-15T07:19:18.467Z,90.04
2024-01-15T07:24:21.432Z,89.96
2024-01-15T07:29:24.445Z,89.66
2024-01-15T07:34:27.503Z,89.75
2024-01-15T07:39:31.775Z,89.68
2024-01-15T07:44:35.043Z,89.61
2024-01-15T07:49:38.061Z,89.59
2024-01-15T07:54:41.077Z,89.41
2024-01-15T07:59:43.889Z,89.36
2024-01-15T08:04:47.191Z,89.29
2024-01-15T08:09:50.235Z,89.25
2024-01-15T08:14:53.042Z,89.24
2024-01-15T08:19:56.151Z,89.07
2024-01-15T08:24:59.222Z,88.99
2024-01-15T08:30:01.990Z,88.92
2024-01-15T08:35:05.423Z,88.88
2024-01-15T08:40:35.449Z,88.75
2024-01-15T08:45:38.574Z,88.64
2024-01-15T08:51:07.419Z,88.44
2024-01-15T08:56:10.176Z,88.25
2024-01-15T09:01:13.294Z,88.33
2024-01-15T09:06:16.289Z,88.22
2024-01-15T09:11:19.098Z,88.07
2024-01-15T09:16:21.795Z,87.88
2024-01-15T09:21:25.802Z,87.64
2024-01-15T09:26:28.731Z,87.60
2024-01-15T09:31:32.627Z,87.64
2024-01-15T09:36:42.522Z,87.47
2024-01-15T09:41:45.499Z,87.41
2024-01-15T09:46:51.459Z,87.28
2024-01-15T09:52:06.133Z,87.12
2024-01-15T09:57:14.567Z,87.04
2024-01-15T10:02:19.566Z,86.71
2024-01-15T10:07:24.535Z,86.72
2024-01-15T10:12:28.479Z,86.54
2024-01-15T10:17:32.545Z,86.13
2024-01-15T10:22:38.856Z,86.08
2024-01-15T10:27:43.046Z,86.04
2024-01-15T10:33:00.848Z,86.04
2024-01-15T10:38:04.206Z,85.44
2024-01-15T10:43:06.986Z,84.96
2024-01-15T10:48:09.965Z,84.82
2024-01-15T10:53:15.901Z,85.04
2024-01-15T10:58:19.778Z,85.00
2024-01-15T11:03:23.405Z,85.01
2024-01-15T11:08:26.855Z,84.76
2024-01-15T11:13:32.388Z,84.80
2024-01-15T11:18:45.263Z,84.88
2024-01-15T11:24:00.867Z,84.80
2024-01-15T11:29:30.980Z,85.15
2024-01-15T11:35:00.056Z,85.31
2024-01-15T11:40:12.353Z,85.31
2024-01-15T11:45:20.588Z,85.26
2024-01-15T11:50:23.721Z,85.09
2024-01-15T11:55:35.494Z,85.06
2024-01-15T12:00:50.006Z,84.89
2024-01-15T12:05:56.055Z,84.19
2024-01-15T12:10:59.117Z,83.68
2024-01-15T12:16:05.236Z,82.99
2024-01-15T12:21:09.142Z,82.86
2024-01-15T12:26:12.134Z,82.78
2024-01-15T12:31:14.964Z,82.61
2024-01-15T12:36:22.348Z,82.93
2024-01-15T12:41:25.230Z,83.33
2024-01-15T12:46:28.618Z,83.52
2024-01-15T12:51:31.558Z,83.60
2024-01-15T12:56:34.264Z,83.75
2024-01-15T13:01:37.611Z,83.74
2024-01-15T13:06:41.835Z,83.86
2024-01-15T13:11:46.660Z,83.80
2024-01-15T13:16:49.584Z,83.91
2024-01-15T13:21:52.786Z,84.21
2024-01-15T13:26:58.590Z,84.58
2024-01-15T13:37:27.451Z,85.36
2024-01-15T13:42:48.942Z,85.38
2024-01-15T13:48:54.710Z,85.47
2024-01-15T13:54:02.256Z,85.41
2024-01-15T13:59:06.552Z,85.35
2024-01-15T14:04:09.287Z,85.32
2024-01-15T14:09:12.150Z,85.26
2024-01-15T14:14:15.636Z,85.22
2024-01-15T14:19:20.090Z,85.17
2024-01-15T14:24:23.213Z,84.96
2024-01-15T14:34:55.169Z,84.11
2024-01-15T14:39:58.198Z,83.57
2024-01-15T14:45:03.472Z,83.53
2024-01-15T14:50:11.380Z,83.36
2024-01-15T14:55:14.504Z,83.32
2024-01-15T15:00:18.286Z,83.28
2024-01-15T15:05:21.351Z,83.11
2024-01-15T15:10:24.170Z,82.96
2024-01-15T15:15:27.065Z,82.79
2024-01-15T15:20:30.353Z,82.48
2024-01-15T15:25:33.321Z,82.17
2024-01-15T15:30:36.303Z,82.21
2024-01-15T15:35:40.514Z,82.08
2024-01-15T15:40:43.343Z,82.07
2024-01-15T15:45:46.138Z,81.80
2024-01-15T15:50:49.009Z,81.97
2024-01-15T15:55:51.833Z,81.51
2024-01-15T16:00:55.095Z,81.53
2024-01-15T16:05:58.738Z,81.79
2024-01-15T16:11:01.729Z,81.67
2024-01-15T16:23:09.546Z,81.76
2024-01-15T16:23:36.632Z,81.60
2024-01-15T16:26:50.797Z,81.25
2024-01-15T16:31:53.856Z,81.21
2024-01-15T16:36:56.680Z,81.25
2024-01-15T16:41:59.870Z,81.04
2024-01-15T16:47:07.330Z,81.01
2024-01-15T16:52:13.539Z,80.96
2024-01-15T16:57:16.375Z,81.03
2024-01-15T17:02:19.380Z,81.09
2024-01-15T17:07:22.220Z,80.83
2024-01-15T17:12:25.020Z,80.89
2024-01-15T17:17:27.799Z,81.04
2024-01-15T17:22:32.253Z,81.14
2024-01-15T17:27:35.122Z,81.18
2024-01-15T17:32:38.190Z,81.19
2024-01-15T17:37:41.031Z,81.04
2024-01-15T17:42:43.843Z,81.10
2024-01-15T17:47:46.812Z,81.19
2024-01-15T17:52:49.739Z,81.33
2024-01-15T17:57:53.781Z,81.43
2024-01-15T18:02:56.957Z,81.50
2024-01-15T18:08:00.172Z,81.58
2024-01-15T18:13:02.879Z,81.58
2024-01-15T18:18:06.392Z,81.65
2024-01-15T18:23:09.460Z,81.68
2024-01-15T18:28:15.663Z,81.78
2024-01-15T18:33:23.261Z,81.98
2024-01-15T18:38:26.088Z,82.12
2024-01-15T18:43:35.281Z,82.32
2024-01-15T18:48:38.151Z,82.57
2024-01-15T18:53:41.200Z,82.83
2024-01-15T18:58:44.889Z,83.00
2024-01-15T19:03:47.653Z,83.20
2024-01-15T19:08:51.770Z,83.39
2024-01-15T19:13:54.518Z,83.44
2024-01-15T19:18:57.537Z,83.68
2024-01-15T19:24:00.380Z,83.75
2024-01-15T19:29:04.415Z,83.83
2024-01-15T19:34:07.225Z,83.90
2024-01-15T19:39:10.698Z,83.96
2024-01-15T19:44:13.593Z,84.17
2024-01-15T19:49:21.724Z,84.19
2024-01-15T19:54:24.425Z,84.51
2024-01-15T19:59:27.226Z,84.72
2024-01-15T20:04:30.067Z,84.82
2024-01-15T20:09:33.105Z,84.93
2024-01-15T20:14:36.628Z,85.04
2024-01-15T20:19:40.714Z,85.11
2024-01-15T20:24:43.692Z,85.22
2024-01-15T20:29:46.709Z,84.88
2024-01-15T20:34:49.686Z,84.75
2024-01-15T20:39:52.702Z,84.74
2024-01-15T20:44:55.506Z,84.96
2024-01-15T20:49:58.473Z,85.21
2024-01-15T20:55:01.244Z,85.20
2024-01-15T21:00:05.656Z,85.07
2024-01-15T21:05:09.058Z,84.71
2024-01-15T21:10:11.967Z,84.46
2024-01-15T21:15:15.581Z,84.14
2024-01-15T21:20:18.454Z,83.75
2024-01-15T21:25:22.911Z,83.50
2024-01-15T21:30:26.314Z,83.25
2024-01-15T21:35:29.448Z,83.21
2024-01-15T21:40:33.365Z,83.03
2024-01-15T21:45:36.112Z,82.74
2024-01-15T21:50:38.773Z,82.49
2024-01-15T21:55:41.506Z,82.29
2024-01-15T22:00:44.393Z,82.37
2024-01-15T22:05:47.832Z,82.56
2024-01-15T22:10:50.678Z,82.47
2024-01-15T22:15:53.417Z,82.35
2024-01-15T22:20:57.985Z,82.15
2024-01-15T22:26:02.314Z,82.11
2024-01-15T22:31:05.097Z,82.11
2024-01-15T22:36:08.203Z,81.91
2024-01-15T22:41:11.051Z,81.97
2024-01-15T22:46:14.115Z,82.25
2024-01-15T22:51:16.860Z,82.54
2024-01-15T22:56:20.766Z,82.74
2024-01-15T23:01:24.251Z,82.86
2024-01-15T23:06:27.260Z,82.90
2024-01-15T23:11:30.012Z,82.63
2024-01-15T23:16:32.817Z,82.36
2024-01-15T23:21:35.581Z,82.36
2024-01-15T23:26:38.357Z,82.36
2024-01-15T23:31:41.785Z,82.36
2024-01-15T23:36:44.610Z,82.14
2024-01-15T23:41:47.439Z,82.03
2024-01-15T23:46:50.363Z,81.83
2024-01-15T23:51:53.795Z,81.45
2024-01-15T23:56:56.578Z,81.32
